sensor_id;sensor_type;location;lat;lon;timestamp;P1;durP1;ratioP1;P2;durP2;ratioP2
51854;SDS011;37895;53.240;6.572;2023-04-25T00:02:05;23.13;;;6.60;;
51854;SDS011;37895;53.240;6.572;2023-04-25T00:04:32;22.70;;;6.85;;
51854;SDS011;37895;53.240;6.572;2023-04-25T00:06:58;27.70;;;6.93;;
51854;SDS011;37895;53.240;6.572;2023-04-25T00:09:26;23.70;;;6.78;;
51854;SDS011;37895;53.240;6.572;2023-04-25T00:11:52;24.63;;;7.18;;
51854;SDS011;37895;53.240;6.572;2023-04-25T00:14:18;25.10;;;6.90;;
51854;SDS011;37895;53.240;6.572;2023-04-25T00:16:43;24.08;;;7.22;;
51854;SDS011;37895;53.240;6.572;2023-04-25T00:19:09;25.57;;;7.37;;
51854;SDS011;37895;53.240;6.572;2023-04-25T00:21:35;27.20;;;7.35;;
51854;SDS011;37895;53.240;6.572;2023-04-25T00:24:02;25.80;;;7.78;;
51854;SDS011;37895;53.240;6.572;2023-04-25T00:26:28;20.27;;;7.20;;
51854;SDS011;37895;53.240;6.572;2023-04-25T00:28:54;22.67;;;5.50;;
51854;SDS011;37895;53.240;6.572;2023-04-25T00:33:46;16.52;;;5.20;;
51854;SDS011;37895;53.240;6.572;2023-04-25T00:36:11;17.50;;;6.40;;
51854;SDS011;37895;53.240;6.572;2023-04-25T00:38:37;17.85;;;4.75;;
51854;SDS011;37895;53.240;6.572;2023-04-25T00:41:04;17.15;;;5.00;;
51854;SDS011;37895;53.240;6.572;2023-04-25T00:43:33;17.77;;;5.10;;
51854;SDS011;37895;53.240;6.572;2023-04-25T00:46:01;16.95;;;5.57;;
51854;SDS011;37895;53.240;6.572;2023-04-25T00:48:26;15.25;;;5.30;;
51854;SDS011;37895;53.240;6.572;2023-04-25T00:50:53;15.40;;;4.88;;
51854;SDS011;37895;53.240;6.572;2023-04-25T00:53:20;24.90;;;6.72;;
51854;SDS011;37895;53.240;6.572;2023-04-25T00:55:47;17.45;;;5.35;;
51854;SDS011;37895;53.240;6.572;2023-04-25T00:58:13;19.35;;;5.50;;
51854;SDS011;37895;53.240;6.572;2023-04-25T01:00:39;16.75;;;4.75;;
51854;SDS011;37895;53.240;6.572;2023-04-25T01:03:06;18.65;;;5.18;;
51854;SDS011;37895;53.240;6.572;2023-04-25T01:05:32;13.15;;;4.65;;
51854;SDS011;37895;53.240;6.572;2023-04-25T01:07:57;12.15;;;4.07;;
51854;SDS011;37895;53.240;6.572;2023-04-25T01:10:24;11.95;;;5.10;;
51854;SDS011;37895;53.240;6.572;2023-04-25T01:12:49;14.90;;;5.18;;
51854;SDS011;37895;53.240;6.572;2023-04-25T01:15:15;15.88;;;4.60;;
51854;SDS011;37895;53.240;6.572;2023-04-25T01:17:41;15.00;;;5.45;;
51854;SDS011;37895;53.240;6.572;2023-04-25T01:20:09;14.05;;;4.60;;
51854;SDS011;37895;53.240;6.572;2023-04-25T01:22:36;15.73;;;4.63;;
51854;SDS011;37895;53.240;6.572;2023-04-25T01:25:03;20.05;;;5.05;;
51854;SDS011;37895;53.240;6.572;2023-04-25T01:27:29;19.58;;;5.50;;
51854;SDS011;37895;53.240;6.572;2023-04-25T01:32:21;11.20;;;4.50;;
51854;SDS011;37895;53.240;6.572;2023-04-25T01:34:47;17.25;;;5.00;;
51854;SDS011;37895;53.240;6.572;2023-04-25T01:37:13;18.97;;;4.90;;
51854;SDS011;37895;53.240;6.572;2023-04-25T01:39:39;15.48;;;4.82;;
51854;SDS011;37895;53.240;6.572;2023-04-25T01:42:05;18.70;;;5.60;;
51854;SDS011;37895;53.240;6.572;2023-04-25T01:44:31;20.17;;;5.03;;
51854;SDS011;37895;53.240;6.572;2023-04-25T01:46:57;17.08;;;5.13;;
51854;SDS011;37895;53.240;6.572;2023-04-25T01:49:23;18.60;;;5.47;;
51854;SDS011;37895;53.240;6.572;2023-04-25T01:51:48;20.77;;;5.80;;
51854;SDS011;37895;53.240;6.572;2023-04-25T01:54:14;17.52;;;5.18;;
51854;SDS011;37895;53.240;6.572;2023-04-25T01:56:40;20.38;;;5.65;;
51854;SDS011;37895;53.240;6.572;2023-04-25T01:59:06;17.75;;;5.60;;
51854;SDS011;37895;53.240;6.572;2023-04-25T02:01:31;17.42;;;5.53;;
51854;SDS011;37895;53.240;6.572;2023-04-25T02:03:57;14.75;;;5.47;;
51854;SDS011;37895;53.240;6.572;2023-04-25T02:06:23;18.88;;;5.65;;
51854;SDS011;37895;53.240;6.572;2023-04-25T02:08:48;21.67;;;6.13;;
51854;SDS011;37895;53.240;6.572;2023-04-25T02:11:14;21.67;;;5.88;;
51854;SDS011;37895;53.240;6.572;2023-04-25T02:13:40;22.25;;;6.18;;
51854;SDS011;37895;53.240;6.572;2023-04-25T02:16:06;21.83;;;5.80;;
51854;SDS011;37895;53.240;6.572;2023-04-25T02:18:31;24.83;;;6.05;;
51854;SDS011;37895;53.240;6.572;2023-04-25T02:20:58;19.85;;;5.20;;
51854;SDS011;37895;53.240;6.572;2023-04-25T02:23:26;18.27;;;5.30;;
51854;SDS011;37895;53.240;6.572;2023-04-25T02:25:51;14.55;;;5.38;;
51854;SDS011;37895;53.240;6.572;2023-04-25T02:28:17;22.90;;;5.55;;
51854;SDS011;37895;53.240;6.572;2023-04-25T02:30:43;16.88;;;5.13;;
51854;SDS011;37895;53.240;6.572;2023-04-25T02:33:09;17.70;;;5.53;;
51854;SDS011;37895;53.240;6.572;2023-04-25T02:35:35;18.45;;;4.93;;
51854;SDS011;37895;53.240;6.572;2023-04-25T02:38:00;12.75;;;5.07;;
51854;SDS011;37895;53.240;6.572;2023-04-25T02:40:26;18.87;;;5.23;;
51854;SDS011;37895;53.240;6.572;2023-04-25T02:42:52;15.57;;;5.43;;
51854;SDS011;37895;53.240;6.572;2023-04-25T02:45:17;16.40;;;5.37;;
51854;SDS011;37895;53.240;6.572;2023-04-25T02:47:43;13.35;;;4.47;;
51854;SDS011;37895;53.240;6.572;2023-04-25T02:50:08;15.98;;;5.18;;
51854;SDS011;37895;53.240;6.572;2023-04-25T02:52:34;13.50;;;4.82;;
51854;SDS011;37895;53.240;6.572;2023-04-25T02:55:00;12.50;;;4.25;;
51854;SDS011;37895;53.240;6.572;2023-04-25T02:57:25;22.30;;;5.57;;
51854;SDS011;37895;53.240;6.572;2023-04-25T02:59:51;15.63;;;5.00;;
51854;SDS011;37895;53.240;6.572;2023-04-25T03:02:17;13.27;;;4.20;;
51854;SDS011;37895;53.240;6.572;2023-04-25T03:04:42;16.88;;;4.63;;
51854;SDS011;37895;53.240;6.572;2023-04-25T03:07:08;15.03;;;5.30;;
51854;SDS011;37895;53.240;6.572;2023-04-25T03:09:34;17.92;;;5.28;;
51854;SDS011;37895;53.240;6.572;2023-04-25T03:12:00;13.00;;;5.00;;
51854;SDS011;37895;53.240;6.572;2023-04-25T03:14:26;15.25;;;4.32;;
51854;SDS011;37895;53.240;6.572;2023-04-25T03:16:52;21.33;;;6.25;;
51854;SDS011;37895;53.240;6.572;2023-04-25T03:19:17;13.43;;;4.90;;
51854;SDS011;37895;53.240;6.572;2023-04-25T03:21:43;17.52;;;4.35;;
51854;SDS011;37895;53.240;6.572;2023-04-25T03:24:09;16.45;;;4.60;;
51854;SDS011;37895;53.240;6.572;2023-04-25T03:26:36;13.40;;;4.72;;
51854;SDS011;37895;53.240;6.572;2023-04-25T03:29:01;13.88;;;4.65;;
51854;SDS011;37895;53.240;6.572;2023-04-25T03:31:27;15.70;;;5.30;;
51854;SDS011;37895;53.240;6.572;2023-04-25T03:33:53;13.55;;;4.03;;
51854;SDS011;37895;53.240;6.572;2023-04-25T03:36:18;11.75;;;4.88;;
51854;SDS011;37895;53.240;6.572;2023-04-25T03:38:44;11.15;;;4.47;;
51854;SDS011;37895;53.240;6.572;2023-04-25T03:41:10;14.80;;;4.30;;
51854;SDS011;37895;53.240;6.572;2023-04-25T03:46:02;14.05;;;4.68;;
51854;SDS011;37895;53.240;6.572;2023-04-25T03:48:27;12.50;;;4.20;;
51854;SDS011;37895;53.240;6.572;2023-04-25T03:50:53;12.23;;;4.78;;
51854;SDS011;37895;53.240;6.572;2023-04-25T03:55:45;16.98;;;4.63;;
51854;SDS011;37895;53.240;6.572;2023-04-25T03:58:10;15.33;;;4.97;;
51854;SDS011;37895;53.240;6.572;2023-04-25T04:00:36;12.85;;;4.00;;
51854;SDS011;37895;53.240;6.572;2023-04-25T04:03:02;11.68;;;4.18;;
51854;SDS011;37895;53.240;6.572;2023-04-25T04:05:28;14.73;;;5.03;;
51854;SDS011;37895;53.240;6.572;2023-04-25T04:07:54;17.20;;;4.95;;
51854;SDS011;37895;53.240;6.572;2023-04-25T04:10:20;14.88;;;4.60;;
51854;SDS011;37895;53.240;6.572;2023-04-25T04:12:46;11.10;;;4.53;;
51854;SDS011;37895;53.240;6.572;2023-04-25T04:15:11;15.82;;;5.20;;
51854;SDS011;37895;53.240;6.572;2023-04-25T04:17:37;16.52;;;6.20;;
51854;SDS011;37895;53.240;6.572;2023-04-25T04:20:03;14.80;;;5.10;;
51854;SDS011;37895;53.240;6.572;2023-04-25T04:22:30;13.15;;;4.57;;
51854;SDS011;37895;53.240;6.572;2023-04-25T04:24:56;15.48;;;5.35;;
51854;SDS011;37895;53.240;6.572;2023-04-25T04:27:22;15.75;;;5.28;;
51854;SDS011;37895;53.240;6.572;2023-04-25T04:32:14;16.80;;;4.80;;
51854;SDS011;37895;53.240;6.572;2023-04-25T04:34:40;15.48;;;5.28;;
51854;SDS011;37895;53.240;6.572;2023-04-25T04:37:06;18.38;;;5.53;;
51854;SDS011;37895;53.240;6.572;2023-04-25T04:39:35;18.05;;;6.05;;
51854;SDS011;37895;53.240;6.572;2023-04-25T04:42:01;20.33;;;4.80;;
51854;SDS011;37895;53.240;6.572;2023-04-25T04:44:29;18.10;;;4.88;;
51854;SDS011;37895;53.240;6.572;2023-04-25T04:46:58;19.90;;;6.20;;
51854;SDS011;37895;53.240;6.572;2023-04-25T04:51:49;15.93;;;5.05;;
51854;SDS011;37895;53.240;6.572;2023-04-25T04:54:15;14.23;;;4.57;;
51854;SDS011;37895;53.240;6.572;2023-04-25T04:56:40;16.95;;;5.43;;
51854;SDS011;37895;53.240;6.572;2023-04-25T04:59:07;13.30;;;4.57;;
51854;SDS011;37895;53.240;6.572;2023-04-25T05:01:32;13.50;;;4.13;;
51854;SDS011;37895;53.240;6.572;2023-04-25T05:04:00;12.45;;;4.07;;
51854;SDS011;37895;53.240;6.572;2023-04-25T05:06:27;13.75;;;3.47;;
51854;SDS011;37895;53.240;6.572;2023-04-25T05:08:56;9.20;;;3.63;;
51854;SDS011;37895;53.240;6.572;2023-04-25T05:11:23;8.07;;;3.53;;
51854;SDS011;37895;53.240;6.572;2023-04-25T05:13:50;8.13;;;3.30;;
51854;SDS011;37895;53.240;6.572;2023-04-25T05:16:17;9.93;;;3.38;;
51854;SDS011;37895;53.240;6.572;2023-04-25T05:18:42;5.68;;;3.20;;
51854;SDS011;37895;53.240;6.572;2023-04-25T05:21:08;8.20;;;3.15;;
51854;SDS011;37895;53.240;6.572;2023-04-25T05:23:34;6.68;;;2.85;;
51854;SDS011;37895;53.240;6.572;2023-04-25T05:26:00;7.40;;;2.78;;
51854;SDS011;37895;53.240;6.572;2023-04-25T05:28:25;5.20;;;2.83;;
51854;SDS011;37895;53.240;6.572;2023-04-25T05:30:51;7.72;;;3.03;;
51854;SDS011;37895;53.240;6.572;2023-04-25T05:33:23;6.40;;;3.10;;
51854;SDS011;37895;53.240;6.572;2023-04-25T05:35:50;6.30;;;2.75;;
51854;SDS011;37895;53.240;6.572;2023-04-25T05:38:16;11.25;;;3.85;;
51854;SDS011;37895;53.240;6.572;2023-04-25T05:40:43;12.05;;;3.63;;
51854;SDS011;37895;53.240;6.572;2023-04-25T05:43:11;7.43;;;3.30;;
51854;SDS011;37895;53.240;6.572;2023-04-25T05:45:36;8.17;;;3.17;;
51854;SDS011;37895;53.240;6.572;2023-04-25T05:48:02;9.10;;;3.67;;
51854;SDS011;37895;53.240;6.572;2023-04-25T05:50:28;9.30;;;3.22;;
51854;SDS011;37895;53.240;6.572;2023-04-25T05:52:53;8.18;;;2.80;;
51854;SDS011;37895;53.240;6.572;2023-04-25T05:55:19;9.98;;;4.00;;
51854;SDS011;37895;53.240;6.572;2023-04-25T05:57:44;8.38;;;3.33;;
51854;SDS011;37895;53.240;6.572;2023-04-25T06:00:11;13.87;;;3.70;;
51854;SDS011;37895;53.240;6.572;2023-04-25T06:02:38;19.17;;;3.90;;
51854;SDS011;37895;53.240;6.572;2023-04-25T06:05:03;8.18;;;3.60;;
51854;SDS011;37895;53.240;6.572;2023-04-25T06:07:30;13.15;;;3.25;;
51854;SDS011;37895;53.240;6.572;2023-04-25T06:09:56;6.65;;;3.15;;
51854;SDS011;37895;53.240;6.572;2023-04-25T06:12:21;6.43;;;2.67;;
51854;SDS011;37895;53.240;6.572;2023-04-25T06:14:47;5.82;;;2.35;;
51854;SDS011;37895;53.240;6.572;2023-04-25T06:17:13;6.65;;;2.80;;
51854;SDS011;37895;53.240;6.572;2023-04-25T06:19:39;6.88;;;2.80;;
51854;SDS011;37895;53.240;6.572;2023-04-25T06:22:04;5.35;;;2.60;;
51854;SDS011;37895;53.240;6.572;2023-04-25T06:24:32;8.80;;;3.03;;
51854;SDS011;37895;53.240;6.572;2023-04-25T06:26:58;8.43;;;3.00;;
51854;SDS011;37895;53.240;6.572;2023-04-25T06:29:24;11.13;;;4.03;;
51854;SDS011;37895;53.240;6.572;2023-04-25T06:31:49;6.68;;;3.00;;
51854;SDS011;37895;53.240;6.572;2023-04-25T06:34:15;7.07;;;2.75;;
51854;SDS011;37895;53.240;6.572;2023-04-25T06:36:41;11.15;;;3.10;;
51854;SDS011;37895;53.240;6.572;2023-04-25T06:39:06;12.77;;;3.00;;
51854;SDS011;37895;53.240;6.572;2023-04-25T06:41:32;9.73;;;3.40;;
51854;SDS011;37895;53.240;6.572;2023-04-25T06:43:58;11.07;;;3.30;;
51854;SDS011;37895;53.240;6.572;2023-04-25T06:46:23;10.63;;;3.80;;
51854;SDS011;37895;53.240;6.572;2023-04-25T06:48:49;10.82;;;4.20;;
51854;SDS011;37895;53.240;6.572;2023-04-25T06:51:15;12.02;;;3.67;;
51854;SDS011;37895;53.240;6.572;2023-04-25T06:53:41;13.40;;;3.88;;
51854;SDS011;37895;53.240;6.572;2023-04-25T06:56:06;12.05;;;3.75;;
51854;SDS011;37895;53.240;6.572;2023-04-25T06:58:32;11.88;;;3.83;;
51854;SDS011;37895;53.240;6.572;2023-04-25T07:00:58;9.50;;;3.40;;
51854;SDS011;37895;53.240;6.572;2023-04-25T07:03:26;11.98;;;3.70;;
51854;SDS011;37895;53.240;6.572;2023-04-25T07:05:52;16.20;;;3.80;;
51854;SDS011;37895;53.240;6.572;2023-04-25T07:08:17;11.73;;;3.13;;
51854;SDS011;37895;53.240;6.572;2023-04-25T07:10:43;13.57;;;3.30;;
51854;SDS011;37895;53.240;6.572;2023-04-25T07:13:08;6.57;;;2.70;;
51854;SDS011;37895;53.240;6.572;2023-04-25T07:15:35;9.30;;;3.03;;
51854;SDS011;37895;53.240;6.572;2023-04-25T07:20:26;10.00;;;3.00;;
51854;SDS011;37895;53.240;6.572;2023-04-25T07:22:52;9.15;;;3.10;;
51854;SDS011;37895;53.240;6.572;2023-04-25T07:25:18;8.18;;;2.88;;
51854;SDS011;37895;53.240;6.572;2023-04-25T07:27:44;5.82;;;2.53;;
51854;SDS011;37895;53.240;6.572;2023-04-25T07:30:10;6.45;;;2.35;;
51854;SDS011;37895;53.240;6.572;2023-04-25T07:32:37;11.40;;;2.90;;
51854;SDS011;37895;53.240;6.572;2023-04-25T07:35:04;7.70;;;2.70;;
51854;SDS011;37895;53.240;6.572;2023-04-25T07:37:32;9.40;;;2.80;;
51854;SDS011;37895;53.240;6.572;2023-04-25T07:39:58;9.77;;;3.00;;
51854;SDS011;37895;53.240;6.572;2023-04-25T07:42:23;9.27;;;2.90;;
51854;SDS011;37895;53.240;6.572;2023-04-25T07:44:49;13.48;;;3.05;;
51854;SDS011;37895;53.240;6.572;2023-04-25T07:47:16;12.43;;;3.15;;
51854;SDS011;37895;53.240;6.572;2023-04-25T07:49:44;8.60;;;2.78;;
51854;SDS011;37895;53.240;6.572;2023-04-25T07:54:36;9.43;;;2.83;;
51854;SDS011;37895;53.240;6.572;2023-04-25T07:57:01;9.23;;;2.97;;
51854;SDS011;37895;53.240;6.572;2023-04-25T07:59:27;8.77;;;2.90;;
51854;SDS011;37895;53.240;6.572;2023-04-25T08:01:53;10.35;;;2.85;;
51854;SDS011;37895;53.240;6.572;2023-04-25T08:04:18;6.43;;;2.50;;
51854;SDS011;37895;53.240;6.572;2023-04-25T08:06:44;7.82;;;2.53;;
51854;SDS011;37895;53.240;6.572;2023-04-25T08:09:10;8.35;;;2.85;;
51854;SDS011;37895;53.240;6.572;2023-04-25T08:11:36;6.20;;;2.63;;
51854;SDS011;37895;53.240;6.572;2023-04-25T08:14:02;5.55;;;2.25;;
51854;SDS011;37895;53.240;6.572;2023-04-25T08:16:28;5.80;;;2.30;;
51854;SDS011;37895;53.240;6.572;2023-04-25T08:18:53;6.05;;;2.45;;
51854;SDS011;37895;53.240;6.572;2023-04-25T08:21:19;5.68;;;2.55;;
51854;SDS011;37895;53.240;6.572;2023-04-25T08:23:45;6.15;;;2.35;;
51854;SDS011;37895;53.240;6.572;2023-04-25T08:26:11;6.97;;;2.35;;
51854;SDS011;37895;53.240;6.572;2023-04-25T08:28:37;7.72;;;2.80;;
51854;SDS011;37895;53.240;6.572;2023-04-25T08:31:02;5.88;;;2.53;;
51854;SDS011;37895;53.240;6.572;2023-04-25T08:33:29;6.07;;;3.42;;
51854;SDS011;37895;53.240;6.572;2023-04-25T08:38:21;7.97;;;2.42;;
51854;SDS011;37895;53.240;6.572;2023-04-25T08:40:49;6.97;;;2.63;;
51854;SDS011;37895;53.240;6.572;2023-04-25T08:43:19;5.63;;;2.58;;
51854;SDS011;37895;53.240;6.572;2023-04-25T08:45:45;5.70;;;2.30;;
51854;SDS011;37895;53.240;6.572;2023-04-25T08:48:15;5.53;;;2.42;;
51854;SDS011;37895;53.240;6.572;2023-04-25T08:50:51;5.50;;;2.65;;
51854;SDS011;37895;53.240;6.572;2023-04-25T08:55:51;6.70;;;2.63;;
51854;SDS011;37895;53.240;6.572;2023-04-25T08:58:19;6.10;;;2.65;;
51854;SDS011;37895;53.240;6.572;2023-04-25T09:03:12;8.38;;;3.25;;
51854;SDS011;37895;53.240;6.572;2023-04-25T09:05:38;8.70;;;3.60;;
51854;SDS011;37895;53.240;6.572;2023-04-25T09:08:05;7.90;;;3.10;;
51854;SDS011;37895;53.240;6.572;2023-04-25T09:10:31;9.60;;;3.25;;
51854;SDS011;37895;53.240;6.572;2023-04-25T09:13:06;14.88;;;4.03;;
51854;SDS011;37895;53.240;6.572;2023-04-25T09:18:26;9.32;;;3.30;;
51854;SDS011;37895;53.240;6.572;2023-04-25T09:20:54;14.40;;;3.13;;
51854;SDS011;37895;53.240;6.572;2023-04-25T09:23:21;11.07;;;3.60;;
51854;SDS011;37895;53.240;6.572;2023-04-25T09:25:48;11.95;;;3.10;;
51854;SDS011;37895;53.240;6.572;2023-04-25T09:28:15;11.90;;;3.75;;
51854;SDS011;37895;53.240;6.572;2023-04-25T09:30:41;11.15;;;3.60;;
51854;SDS011;37895;53.240;6.572;2023-04-25T09:33:07;9.55;;;3.42;;
51854;SDS011;37895;53.240;6.572;2023-04-25T09:35:35;10.93;;;3.20;;
51854;SDS011;37895;53.240;6.572;2023-04-25T09:38:14;16.05;;;4.07;;
51854;SDS011;37895;53.240;6.572;2023-04-25T09:40:40;11.70;;;3.20;;
51854;SDS011;37895;53.240;6.572;2023-04-25T09:43:20;8.57;;;2.97;;
51854;SDS011;37895;53.240;6.572;2023-04-25T09:45:49;6.97;;;2.65;;
51854;SDS011;37895;53.240;6.572;2023-04-25T09:48:20;8.80;;;3.17;;
51854;SDS011;37895;53.240;6.572;2023-04-25T09:51:08;12.90;;;3.38;;
51854;SDS011;37895;53.240;6.572;2023-04-25T09:53:40;8.85;;;2.88;;
51854;SDS011;37895;53.240;6.572;2023-04-25T09:56:08;8.18;;;3.03;;
51854;SDS011;37895;53.240;6.572;2023-04-25T09:58:35;11.00;;;3.05;;
51854;SDS011;37895;53.240;6.572;2023-04-25T10:01:11;8.85;;;3.33;;
51854;SDS011;37895;53.240;6.572;2023-04-25T10:03:38;13.23;;;3.40;;
51854;SDS011;37895;53.240;6.572;2023-04-25T10:06:19;11.05;;;3.25;;
51854;SDS011;37895;53.240;6.572;2023-04-25T10:08:46;14.05;;;3.30;;
51854;SDS011;37895;53.240;6.572;2023-04-25T10:11:16;12.43;;;3.30;;
51854;SDS011;37895;53.240;6.572;2023-04-25T10:13:42;7.85;;;2.50;;
51854;SDS011;37895;53.240;6.572;2023-04-25T10:16:08;8.85;;;3.28;;
51854;SDS011;37895;53.240;6.572;2023-04-25T10:18:34;9.13;;;2.60;;
51854;SDS011;37895;53.240;6.572;2023-04-25T10:21:00;10.95;;;3.40;;
51854;SDS011;37895;53.240;6.572;2023-04-25T10:23:29;10.85;;;3.20;;
51854;SDS011;37895;53.240;6.572;2023-04-25T10:25:56;13.30;;;3.78;;
51854;SDS011;37895;53.240;6.572;2023-04-25T10:28:23;10.77;;;3.47;;
51854;SDS011;37895;53.240;6.572;2023-04-25T10:30:59;10.27;;;3.55;;
51854;SDS011;37895;53.240;6.572;2023-04-25T10:33:38;10.43;;;3.20;;
51854;SDS011;37895;53.240;6.572;2023-04-25T10:38:36;8.23;;;2.80;;
51854;SDS011;37895;53.240;6.572;2023-04-25T10:41:05;15.00;;;3.70;;
51854;SDS011;37895;53.240;6.572;2023-04-25T10:46:13;12.40;;;3.17;;
51854;SDS011;37895;53.240;6.572;2023-04-25T10:48:45;13.82;;;4.10;;
51854;SDS011;37895;53.240;6.572;2023-04-25T10:53:46;8.30;;;3.10;;
51854;SDS011;37895;53.240;6.572;2023-04-25T10:56:22;8.52;;;3.50;;
51854;SDS011;37895;53.240;6.572;2023-04-25T10:58:50;9.80;;;2.67;;
51854;SDS011;37895;53.240;6.572;2023-04-25T11:01:19;9.68;;;3.33;;
51854;SDS011;37895;53.240;6.572;2023-04-25T11:03:46;9.70;;;3.17;;
51854;SDS011;37895;53.240;6.572;2023-04-25T11:09:12;7.30;;;2.78;;
51854;SDS011;37895;53.240;6.572;2023-04-25T11:11:38;10.05;;;2.88;;
51854;SDS011;37895;53.240;6.572;2023-04-25T11:14:04;7.32;;;2.90;;
51854;SDS011;37895;53.240;6.572;2023-04-25T11:16:29;8.18;;;2.70;;
51854;SDS011;37895;53.240;6.572;2023-04-25T11:18:57;7.30;;;2.97;;
51854;SDS011;37895;53.240;6.572;2023-04-25T11:21:23;12.68;;;3.67;;
51854;SDS011;37895;53.240;6.572;2023-04-25T11:23:52;8.98;;;3.03;;
51854;SDS011;37895;53.240;6.572;2023-04-25T11:26:19;9.73;;;3.10;;
51854;SDS011;37895;53.240;6.572;2023-04-25T11:28:45;10.65;;;3.03;;
51854;SDS011;37895;53.240;6.572;2023-04-25T11:31:12;7.85;;;3.28;;
51854;SDS011;37895;53.240;6.572;2023-04-25T11:33:38;8.00;;;3.65;;
51854;SDS011;37895;53.240;6.572;2023-04-25T11:36:05;9.43;;;2.75;;
51854;SDS011;37895;53.240;6.572;2023-04-25T11:38:31;11.57;;;3.33;;
51854;SDS011;37895;53.240;6.572;2023-04-25T11:40:57;9.02;;;3.20;;
51854;SDS011;37895;53.240;6.572;2023-04-25T11:43:23;7.88;;;3.00;;
51854;SDS011;37895;53.240;6.572;2023-04-25T11:45:49;8.38;;;3.28;;
51854;SDS011;37895;53.240;6.572;2023-04-25T11:48:18;9.30;;;3.15;;
51854;SDS011;37895;53.240;6.572;2023-04-25T11:50:45;10.30;;;2.83;;
51854;SDS011;37895;53.240;6.572;2023-04-25T11:53:11;9.70;;;3.10;;
51854;SDS011;37895;53.240;6.572;2023-04-25T11:55:37;11.65;;;2.80;;
51854;SDS011;37895;53.240;6.572;2023-04-25T11:58:03;9.70;;;3.15;;
51854;SDS011;37895;53.240;6.572;2023-04-25T12:00:29;13.00;;;2.95;;
51854;SDS011;37895;53.240;6.572;2023-04-25T12:05:28;11.52;;;2.90;;
51854;SDS011;37895;53.240;6.572;2023-04-25T12:07:55;10.27;;;2.72;;
51854;SDS011;37895;53.240;6.572;2023-04-25T12:10:23;10.82;;;3.15;;
51854;SDS011;37895;53.240;6.572;2023-04-25T12:12:50;12.45;;;3.28;;
51854;SDS011;37895;53.240;6.572;2023-04-25T12:15:23;8.63;;;3.17;;
51854;SDS011;37895;53.240;6.572;2023-04-25T12:17:50;10.80;;;3.20;;
51854;SDS011;37895;53.240;6.572;2023-04-25T12:20:18;7.93;;;2.53;;
51854;SDS011;37895;53.240;6.572;2023-04-25T12:22:45;9.73;;;2.60;;
51854;SDS011;37895;53.240;6.572;2023-04-25T12:25:12;12.45;;;3.03;;
51854;SDS011;37895;53.240;6.572;2023-04-25T12:33:31;11.98;;;3.42;;
51854;SDS011;37895;53.240;6.572;2023-04-25T12:35:57;10.07;;;3.88;;
51854;SDS011;37895;53.240;6.572;2023-04-25T12:38:27;13.25;;;3.55;;
51854;SDS011;37895;53.240;6.572;2023-04-25T12:40:58;10.65;;;2.85;;
51854;SDS011;37895;53.240;6.572;2023-04-25T12:43:24;12.50;;;3.00;;
51854;SDS011;37895;53.240;6.572;2023-04-25T12:45:51;8.75;;;3.03;;
51854;SDS011;37895;53.240;6.572;2023-04-25T12:48:18;11.55;;;2.88;;
51854;SDS011;37895;53.240;6.572;2023-04-25T12:50:45;6.85;;;2.75;;
51854;SDS011;37895;53.240;6.572;2023-04-25T12:53:14;11.27;;;2.80;;
51854;SDS011;37895;53.240;6.572;2023-04-25T12:55:40;7.18;;;2.60;;
51854;SDS011;37895;53.240;6.572;2023-04-25T12:58:06;9.88;;;2.92;;
51854;SDS011;37895;53.240;6.572;2023-04-25T13:00:32;7.97;;;2.85;;
51854;SDS011;37895;53.240;6.572;2023-04-25T13:02:58;12.02;;;3.05;;
51854;SDS011;37895;53.240;6.572;2023-04-25T13:05:24;8.63;;;2.90;;
51854;SDS011;37895;53.240;6.572;2023-04-25T13:07:50;9.90;;;2.60;;
51854;SDS011;37895;53.240;6.572;2023-04-25T13:10:16;5.03;;;2.35;;
51854;SDS011;37895;53.240;6.572;2023-04-25T13:12:43;9.65;;;3.00;;
51854;SDS011;37895;53.240;6.572;2023-04-25T13:17:36;11.82;;;2.92;;
51854;SDS011;37895;53.240;6.572;2023-04-25T13:20:03;7.97;;;2.78;;
51854;SDS011;37895;53.240;6.572;2023-04-25T13:22:33;7.75;;;2.80;;
51854;SDS011;37895;53.240;6.572;2023-04-25T13:25:01;10.63;;;2.90;;
51854;SDS011;37895;53.240;6.572;2023-04-25T13:27:27;9.82;;;3.35;;
51854;SDS011;37895;53.240;6.572;2023-04-25T13:29:53;7.03;;;2.67;;
51854;SDS011;37895;53.240;6.572;2023-04-25T13:32:19;8.63;;;2.95;;
51854;SDS011;37895;53.240;6.572;2023-04-25T13:34:45;11.65;;;3.45;;
51854;SDS011;37895;53.240;6.572;2023-04-25T13:37:11;9.80;;;3.58;;
51854;SDS011;37895;53.240;6.572;2023-04-25T13:39:36;7.60;;;3.03;;
51854;SDS011;37895;53.240;6.572;2023-04-25T13:42:02;11.67;;;3.10;;
51854;SDS011;37895;53.240;6.572;2023-04-25T13:44:28;10.05;;;2.85;;
51854;SDS011;37895;53.240;6.572;2023-04-25T13:46:53;12.02;;;3.15;;
51854;SDS011;37895;53.240;6.572;2023-04-25T13:49:19;11.77;;;2.88;;
51854;SDS011;37895;53.240;6.572;2023-04-25T13:51:45;8.23;;;2.20;;
51854;SDS011;37895;53.240;6.572;2023-04-25T13:54:11;5.82;;;2.22;;
51854;SDS011;37895;53.240;6.572;2023-04-25T13:56:36;10.38;;;2.42;;
51854;SDS011;37895;53.240;6.572;2023-04-25T13:59:02;10.25;;;2.97;;
51854;SDS011;37895;53.240;6.572;2023-04-25T14:01:28;9.40;;;2.57;;
51854;SDS011;37895;53.240;6.572;2023-04-25T14:03:56;7.75;;;2.75;;
51854;SDS011;37895;53.240;6.572;2023-04-25T14:06:21;9.30;;;2.63;;
51854;SDS011;37895;53.240;6.572;2023-04-25T14:08:49;11.80;;;2.72;;
51854;SDS011;37895;53.240;6.572;2023-04-25T14:11:15;17.67;;;3.47;;
51854;SDS011;37895;53.240;6.572;2023-04-25T14:13:43;8.15;;;2.80;;
51854;SDS011;37895;53.240;6.572;2023-04-25T14:16:09;12.10;;;2.40;;
51854;SDS011;37895;53.240;6.572;2023-04-25T14:18:35;6.07;;;2.10;;
51854;SDS011;37895;53.240;6.572;2023-04-25T14:21:00;4.70;;;2.42;;
51854;SDS011;37895;53.240;6.572;2023-04-25T14:23:26;10.80;;;3.00;;
51854;SDS011;37895;53.240;6.572;2023-04-25T14:25:51;7.13;;;2.50;;
51854;SDS011;37895;53.240;6.572;2023-04-25T14:28:17;7.75;;;2.47;;
51854;SDS011;37895;53.240;6.572;2023-04-25T14:30:43;11.82;;;2.78;;
51854;SDS011;37895;53.240;6.572;2023-04-25T14:33:09;7.80;;;3.20;;
51854;SDS011;37895;53.240;6.572;2023-04-25T14:35:35;9.80;;;2.97;;
51854;SDS011;37895;53.240;6.572;2023-04-25T14:38:00;8.38;;;2.60;;
51854;SDS011;37895;53.240;6.572;2023-04-25T14:40:26;9.02;;;2.70;;
51854;SDS011;37895;53.240;6.572;2023-04-25T14:42:52;9.48;;;2.92;;
51854;SDS011;37895;53.240;6.572;2023-04-25T14:45:17;6.40;;;2.70;;
51854;SDS011;37895;53.240;6.572;2023-04-25T14:47:43;7.35;;;2.20;;
51854;SDS011;37895;53.240;6.572;2023-04-25T14:50:09;7.78;;;2.20;;
51854;SDS011;37895;53.240;6.572;2023-04-25T14:52:35;7.53;;;2.78;;
51854;SDS011;37895;53.240;6.572;2023-04-25T14:55:01;8.30;;;2.60;;
51854;SDS011;37895;53.240;6.572;2023-04-25T14:57:30;9.77;;;2.40;;
51854;SDS011;37895;53.240;6.572;2023-04-25T14:59:57;10.13;;;3.20;;
51854;SDS011;37895;53.240;6.572;2023-04-25T15:02:23;8.38;;;3.30;;
51854;SDS011;37895;53.240;6.572;2023-04-25T15:07:15;10.07;;;3.17;;
51854;SDS011;37895;53.240;6.572;2023-04-25T15:09:41;10.75;;;2.85;;
51854;SDS011;37895;53.240;6.572;2023-04-25T15:12:06;10.93;;;3.15;;
51854;SDS011;37895;53.240;6.572;2023-04-25T15:14:32;11.68;;;2.75;;
51854;SDS011;37895;53.240;6.572;2023-04-25T15:16:59;12.77;;;2.60;;
51854;SDS011;37895;53.240;6.572;2023-04-25T15:21:50;6.97;;;2.67;;
51854;SDS011;37895;53.240;6.572;2023-04-25T15:24:16;9.73;;;2.63;;
51854;SDS011;37895;53.240;6.572;2023-04-25T15:29:08;10.88;;;2.80;;
51854;SDS011;37895;53.240;6.572;2023-04-25T15:31:34;10.07;;;2.92;;
51854;SDS011;37895;53.240;6.572;2023-04-25T15:34:00;11.20;;;2.70;;
51854;SDS011;37895;53.240;6.572;2023-04-25T15:36:26;6.22;;;2.40;;